« Back
NWS Peachtree City, Ga » Text Product » MCN Terminal Aerodrome Forecast

Printer-friendly Version
Current Version              Previous Versions:   1  2  3  4  5  6  7  8  9  

Terminal Aerodrome Forecast

FTUS42 KFFC 081125
KMCN 081125Z 0812/0912 00000KT P6SM SCT250
      TEMPO 0812/0813 3SM BR
     FM081600 10004KT P6SM SCT050 BKN250
     FM090100 00000KT P6SM BKN250
     FM091000 00000KT P6SM BKN007=

USA.gov is the U.S. government's official web portal to all federal, state and local government web resources and services.